Airfield :
LOGIN :

Register | Disclaimer

   EN    FR    IT 

 










Legend :    VFR   Marginal VFR   IFR   Intensive IFR   Very Intensive IFR
Visi :
Ceiling :
>= 8 km
>= 3000ft
5 to 8 km
1000 to 3000 ft
1500m to 5 km
500 to 1000 ft
800 to 1500m
200 to 500 ft
< 800m
< 200 ft
Symbols :   Thunderstorms  Fog  Heavy snow  Heavy precipitations  Wind > 20 kt
SIGMETs :     Misc.  Thunderstorms  Icing  Turbulence  Mountain Waves  Volcanic Ashes







- Airport Elevation : 538 ft
- IATA code : TNF
- Download approach charts


LFPN - Toussus Le Noble

CURRENT METAR :
  • 160900Z AUTO 32007KT 9999 FEW010 BKN014 BKN019 04/03 Q1015 TEMPO BKN012 SCT020TCU

EXPIRED METARs :
  • 160830Z AUTO 32007KT 9999 FEW015 SCT026 BKN032 03/02 Q1015 TEMPO BKN012 SCT020TCU
  • 160800Z AUTO 33009KT 9999 FEW016 SCT021 BKN031 03/02 Q1014 TEMPO BKN012 SCT020TCU
  • 160730Z AUTO 32008KT 9999 BKN018 BKN035 OVC140 03/02 Q1014 TEMPO BKN012 SCT020TCU
  • 160700Z AUTO 32009KT 9999 SCT016 BKN024 BKN029 04/03 Q1013 TEMPO BKN012 SCT020TCU
  • 160630Z AUTO 33010KT 9999 FEW017 OVC032 04/03 Q1013 TEMPO BKN012 SCT020TCU
  • 160600Z AUTO 33010KT 9999 BKN032 03/02 Q1012 TEMPO BKN012 SCT020TCU

TAF TAF LFPN
Valid from the 16 at 09:00 until the 16 at 18:00 UTC


160800Z 1609/1618 33008KT 9999 BKN018
PROB40
TEMPO 1609/1612 32010G20KT BKN012 SCT020TCU
BECMG 1612/1615 CAVOK
ATIS : +33 1 39 56 54 70
No reported NOTAMs for that airfield.



MET'MAP, your aeronautical weather chart ! - Copyright ORBIFLY December 2007 - Disclaimer

ORBIFLY MET'MAP TEAM :

Programming & Development : Alexandra Zaïnal
Concept & Development : Baudouin d'Aumeries
Co-Development & Prog : Marc-Olivier Méhu
Technical & hardware support : Manuel Goepfert

Contact : metmap@orbifly.com




SOURCES & CREDITS :

   NOAA